Time;durP1;ratioP1;P1;durP2;ratioP2;P2;SDS_P1;SDS_P2;PMS_P1;PMS_P2;Temp;Humidity;BMP_temperature;BMP_pressure;BME280_temperature;BME280_humidity;BME280_pressure;Samples;Min_cycle;Max_cycle;Signal;HPM_P1;HPM_P2
2022/01/10 00:01:31;;;;;;;11.00;4.32;;;;;;;2.95;100.00;100177.88;5126541;27;20057;-85
2022/01/10 00:03:58;;;;;;;10.20;4.20;;;;;;;3.07;100.00;100188.94;5124403;27;20051;-85
2022/01/10 00:06:25;;;;;;;12.80;4.80;;;;;;;2.79;100.00;100174.66;5144601;27;20762;-85
2022/01/10 00:08:52;;;;;;;13.50;4.43;;;;;;;3.04;100.00;100207.91;5127366;27;20039;-85
2022/01/10 00:11:19;;;;;;;11.43;4.40;;;;;;;2.89;100.00;100169.38;5126031;27;20047;-85
2022/01/10 00:13:45;;;;;;;12.82;5.00;;;;;;;2.94;100.00;100216.69;5144147;27;20480;-85
2022/01/10 00:16:12;;;;;;;12.93;4.65;;;;;;;2.66;100.00;100163.66;5123510;27;20055;-85
2022/01/10 00:18:39;;;;;;;15.15;5.28;;;;;;;2.82;100.00;100212.56;5124066;27;20047;-85
2022/01/10 00:21:06;;;;;;;16.92;7.72;;;;;;;2.29;100.00;100173.63;5124969;27;20057;-84
2022/01/10 00:23:34;;;;;;;13.32;5.88;;;;;;;2.76;100.00;100174.72;5123972;27;20393;-85
2022/01/10 00:26:02;;;;;;;11.50;3.97;;;;;;;2.96;100.00;100202.03;5124796;27;20069;-85
2022/01/10 00:28:28;;;;;;;12.32;4.18;;;;;;;2.91;100.00;100183.13;5123213;27;20057;-84
2022/01/10 00:30:55;;;;;;;11.60;4.28;;;;;;;3.15;100.00;100211.22;5130321;27;20058;-85
2022/01/10 00:33:22;;;;;;;12.35;4.53;;;;;;;3.18;100.00;100210.28;5147058;27;20043;-85
2022/01/10 00:35:49;;;;;;;11.65;3.90;;;;;;;3.29;100.00;100216.16;5145384;27;20051;-84
2022/01/10 00:38:16;;;;;;;9.75;3.30;;;;;;;3.23;100.00;100224.88;5129518;27;20592;-85
2022/01/10 00:40:44;;;;;;;10.00;4.28;;;;;;;3.06;100.00;100198.41;5149956;27;20667;-85
2022/01/10 00:43:18;;;;;;;10.60;4.05;;;;;;;3.06;100.00;100193.22;5147705;27;20510;-85
2022/01/10 00:45:45;;;;;;;14.05;5.88;;;;;;;3.12;100.00;100238.84;5144436;27;20054;-84
2022/01/10 00:48:12;;;;;;;11.80;4.35;;;;;;;2.94;100.00;100206.34;5128449;27;20058;-85
2022/01/10 00:50:39;;;;;;;10.93;4.63;;;;;;;3.02;100.00;100210.53;5147158;27;20039;-84
2022/01/10 00:53:05;;;;;;;11.38;4.30;;;;;;;3.22;100.00;100214.53;5129443;27;20043;-85
2022/01/10 00:55:32;;;;;;;9.95;3.38;;;;;;;3.25;100.00;100218.81;5128465;27;20050;-84
2022/01/10 00:57:59;;;;;;;11.55;4.22;;;;;;;3.16;100.00;100212.06;5129089;27;20043;-85
2022/01/10 01:00:26;;;;;;;12.13;4.07;;;;;;;3.07;100.00;100205.28;5130117;27;20043;-85
2022/01/10 01:02:52;;;;;;;10.30;3.92;;;;;;;3.22;100.00;100217.13;5143994;27;20480;-85
2022/01/10 01:05:21;;;;;;;12.80;4.45;;;;;;;3.05;100.00;100230.31;5145698;27;20046;-84
2022/01/10 01:07:48;;;;;;;12.13;4.03;;;;;;;3.19;100.00;100232.72;5127749;27;20050;-85
2022/01/10 01:13:29;;;;;;;9.20;4.05;;;;;;;3.48;100.00;100228.81;5146502;27;20393;-85
2022/01/10 01:19:52;;;;;;;10.48;3.85;;;;;;;3.43;100.00;100228.88;5143383;27;20451;-85
2022/01/10 01:24:07;;;;;;;9.07;3.28;;;;;;;3.68;100.00;100241.41;5146391;27;20486;-85
2022/01/10 01:26:37;;;;;;;12.77;4.38;;;;;;;3.30;100.00;100225.63;5145159;27;20057;-85
2022/01/10 01:29:06;;;;;;;13.63;5.38;;;;;;;3.11;100.00;100227.63;5124222;27;20051;-85
2022/01/10 01:31:33;;;;;;;12.10;5.32;;;;;;;2.69;100.00;100222.19;5127197;27;20054;-85
2022/01/10 01:34:00;;;;;;;10.15;5.13;;;;;;;2.51;100.00;100240.53;5130129;27;20050;-84
2022/01/10 01:36:30;;;;;;;14.18;4.20;;;;;;;3.01;100.00;100245.03;5148350;27;20058;-84
2022/01/10 01:38:58;;;;;;;11.95;4.28;;;;;;;3.29;100.00;100246.34;5145325;27;20388;-84
2022/01/10 01:43:52;;;;;;;9.77;3.35;;;;;;;3.40;100.00;100253.06;5145608;27;20072;-85
2022/01/10 01:46:21;;;;;;;10.18;3.97;;;;;;;3.06;100.00;100257.88;5126921;27;20135;-85
2022/01/10 01:48:50;;;;;;;12.15;4.80;;;;;;;3.20;100.00;100258.53;5148542;27;20046;-85
2022/01/10 01:51:17;;;;;;;9.70;3.85;;;;;;;3.28;100.00;100255.00;5136961;27;20064;-85
2022/01/10 01:53:44;;;;;;;10.18;4.55;;;;;;;3.47;100.00;100263.31;5154968;27;20047;-85
2022/01/10 01:56:12;;;;;;;10.73;4.30;;;;;;;3.38;100.00;100298.84;5126347;27;20047;-84
2022/01/10 01:58:42;;;;;;;13.60;6.10;;;;;;;3.11;100.00;100271.63;5136204;27;20399;-85
2022/01/10 02:01:10;;;;;;;11.93;5.65;;;;;;;3.10;100.00;100288.03;5116535;27;20155;-85
2022/01/10 02:03:38;;;;;;;11.27;4.10;;;;;;;3.05;100.00;100258.78;5116283;27;20054;-84
2022/01/10 02:06:06;;;;;;;9.93;4.07;;;;;;;3.00;100.00;100255.41;5134696;27;20398;-85
2022/01/10 02:08:35;;;;;;;9.85;3.22;;;;;;;3.11;100.00;100288.88;5118657;27;20050;-84
2022/01/10 02:11:03;;;;;;;9.52;3.15;;;;;;;2.99;100.00;100230.41;5136282;27;20049;-85
2022/01/10 02:13:30;;;;;;;12.90;4.57;;;;;;;3.12;100.00;100288.00;5153152;27;20666;-85
2022/01/10 02:16:00;;;;;;;8.80;2.92;;;;;;;3.51;100.00;100293.47;5136026;27;20046;-85
2022/01/10 02:18:28;;;;;;;9.13;3.72;;;;;;;3.23;100.00;100297.31;5136137;27;20054;-85
2022/01/10 02:21:00;;;;;;;12.68;4.25;;;;;;;3.22;100.00;100307.69;5115900;27;20043;-85
2022/01/10 02:23:28;;;;;;;13.27;3.75;;;;;;;3.41;100.00;100308.28;5121256;27;20042;-85
2022/01/10 02:25:56;;;;;;;10.57;3.35;;;;;;;3.48;100.00;100306.44;5128999;27;20047;-84
2022/01/10 02:28:23;;;;;;;9.98;3.20;;;;;;;3.29;100.00;100308.44;5114637;27;20047;-85
2022/01/10 02:30:57;;;;;;;10.25;3.40;;;;;;;3.41;100.00;100318.63;5135073;27;20498;-85
2022/01/10 02:33:27;;;;;;;9.93;3.47;;;;;;;3.51;100.00;100319.34;5135462;27;20051;-85
2022/01/10 02:38:25;;;;;;;8.98;3.45;;;;;;;3.36;100.00;100329.03;5135452;27;20438;-84
2022/01/10 02:40:52;;;;;;;10.68;4.15;;;;;;;3.28;100.00;100305.03;5135117;27;20053;-85
2022/01/10 02:43:19;;;;;;;8.32;3.42;;;;;;;3.28;100.00;100314.53;5135586;27;20384;-85
2022/01/10 02:45:47;;;;;;;10.32;3.38;;;;;;;3.47;100.00;100307.31;5153989;27;20043;-85
2022/01/10 02:48:14;;;;;;;8.27;3.13;;;;;;;3.37;100.00;100329.91;5135978;27;20399;-85
2022/01/10 02:50:42;;;;;;;8.65;3.15;;;;;;;3.40;100.00;100306.56;5134141;27;20458;-85
2022/01/10 02:53:09;;;;;;;8.73;2.97;;;;;;;3.65;100.00;100339.81;5125409;27;20129;-85
2022/01/10 02:55:35;;;;;;;10.32;3.38;;;;;;;3.46;100.00;100316.81;5150617;27;20047;-85
2022/01/10 02:58:02;;;;;;;8.98;3.00;;;;;;;3.37;100.00;100315.22;5151177;27;20047;-85
2022/01/10 03:00:29;;;;;;;7.20;2.83;;;;;;;3.28;100.00;100273.97;5134068;27;20419;-85
2022/01/10 03:02:58;;;;;;;8.15;2.60;;;;;;;3.45;100.00;100296.97;5153283;27;20042;-85
2022/01/10 03:05:25;;;;;;;8.02;2.50;;;;;;;3.67;100.00;100318.22;5152184;27;20042;-85
2022/01/10 03:07:55;;;;;;;7.20;2.85;;;;;;;3.97;100.00;100354.88;5153832;27;20054;-85
2022/01/10 03:10:22;;;;;;;6.78;2.85;;;;;;;3.93;100.00;100353.19;5134863;27;20042;-85
2022/01/10 03:12:49;;;;;;;7.68;3.10;;;;;;;4.09;100.00;100375.41;5135453;27;20061;-85
2022/01/10 03:15:17;;;;;;;8.93;3.05;;;;;;;3.87;100.00;100354.16;5135387;27;20051;-85
2022/01/10 03:17:44;;;;;;;5.60;2.33;;;;;;;4.08;100.00;100365.06;5154073;27;20046;-85
2022/01/10 03:20:11;;;;;;;7.97;2.70;;;;;;;3.96;100.00;100358.34;5144256;27;20480;-85
2022/01/10 03:22:38;;;;;;;7.32;2.80;;;;;;;4.04;100.00;100384.97;5135540;27;20047;-85
2022/01/10 03:25:05;;;;;;;6.63;2.60;;;;;;;4.05;100.00;100378.06;5147627;27;20047;-85
2022/01/10 03:27:32;;;;;;;8.88;2.72;;;;;;;4.01;100.00;100382.44;5133835;27;20043;-85
2022/01/10 03:29:59;;;;;;;8.55;3.00;;;;;;;4.06;100.00;100392.72;5147636;27;20469;-85
2022/01/10 03:32:26;;;;;;;8.80;2.67;;;;;;;4.29;100.00;100390.59;5153330;27;20567;-85
2022/01/10 03:34:53;;;;;;;7.63;2.70;;;;;;;4.22;100.00;100389.00;5134632;27;20053;-85
2022/01/10 03:37:20;;;;;;;7.15;2.67;;;;;;;4.12;100.00;100406.41;5114176;28;20412;-85
2022/01/10 03:39:46;;;;;;;6.95;2.63;;;;;;;4.11;100.00;100384.00;5144975;27;20046;-85
2022/01/10 03:42:13;;;;;;;9.25;3.15;;;;;;;4.21;100.00;100402.81;5135441;27;20053;-85
2022/01/10 03:44:40;;;;;;;6.78;2.30;;;;;;;4.27;100.00;100396.72;5135124;27;20051;-85
2022/01/10 03:47:09;;;;;;;5.93;2.20;;;;;;;4.33;100.00;100407.81;5126760;28;20559;-85
2022/01/10 03:49:37;;;;;;;7.38;2.35;;;;;;;4.12;100.00;100387.44;5144100;27;20062;-85
2022/01/10 03:52:04;;;;;;;8.70;3.10;;;;;;;4.16;100.00;100404.63;5135552;27;20480;-85
2022/01/10 03:54:31;;;;;;;8.23;4.22;;;;;;;4.08;100.00;100398.75;5170272;27;20516;-84
2022/01/10 03:56:59;;;;;;;8.00;2.72;;;;;;;4.16;100.00;100412.41;5134792;27;20050;-86
2022/01/10 03:59:26;;;;;;;7.35;2.55;;;;;;;4.15;100.00;100408.97;5134114;27;20046;-86
2022/01/10 04:01:54;;;;;;;7.53;2.53;;;;;;;4.01;100.00;100377.25;5135420;27;20049;-85
2022/01/10 04:04:21;;;;;;;8.15;2.80;;;;;;;4.06;100.00;100392.72;5153531;27;20445;-85
2022/01/10 04:06:48;;;;;;;6.00;2.22;;;;;;;4.13;100.00;100386.56;5135362;27;20046;-86
2022/01/10 04:09:14;;;;;;;7.40;2.60;;;;;;;4.18;100.00;100398.56;5136596;27;20054;-86
2022/01/10 04:11:41;;;;;;;7.95;2.65;;;;;;;4.28;100.00;100408.75;5139329;27;20050;-86
2022/01/10 04:14:08;;;;;;;6.53;2.00;;;;;;;4.25;100.00;100422.66;5139967;27;20049;-86
2022/01/10 04:16:35;;;;;;;6.95;2.38;;;;;;;4.17;100.00;100412.38;5135585;27;20043;-86
2022/01/10 04:19:02;;;;;;;5.85;2.20;;;;;;;4.19;100.00;100413.22;5142606;27;20043;-86
2022/01/10 04:21:29;;;;;;;10.10;3.63;;;;;;;4.13;100.00;100418.50;5138035;27;20047;-86
2022/01/10 04:23:56;;;;;;;7.05;3.25;;;;;;;4.01;100.00;100415.25;5118074;27;20050;-86
2022/01/10 04:26:22;;;;;;;6.72;2.22;;;;;;;4.05;100.00;100404.81;5118322;27;20047;-85
2022/01/10 04:28:49;;;;;;;6.43;2.33;;;;;;;3.87;100.00;100407.69;5118891;27;20046;-85
2022/01/10 04:31:16;;;;;;;7.18;2.47;;;;;;;4.16;100.00;100422.78;5117775;27;20050;-85
2022/01/10 04:33:43;;;;;;;6.72;2.70;;;;;;;4.22;100.00;100422.69;5117844;27;20047;-85
2022/01/10 04:36:11;;;;;;;7.97;2.50;;;;;;;4.25;100.00;100430.41;5136317;27;20476;-85
2022/01/10 04:38:42;;;;;;;7.13;2.58;;;;;;;3.98;100.00;100392.84;5119447;27;20129;-85
2022/01/10 04:41:09;;;;;;;5.82;2.28;;;;;;;4.08;100.00;100409.94;5150370;27;20053;-85
2022/01/10 04:43:38;;;;;;;6.50;2.33;;;;;;;4.38;100.00;100424.13;5138015;27;20485;-85
2022/01/10 04:46:05;;;;;;;9.85;3.53;;;;;;;4.29;100.00;100428.63;5156740;27;20475;-86
2022/01/10 04:48:32;;;;;;;7.90;3.13;;;;;;;4.41;100.00;100433.63;5155187;27;20457;-85
2022/01/10 04:53:35;;;;;;;7.03;2.47;;;;;;;4.17;100.00;100422.75;5135511;27;20047;-86
2022/01/10 04:56:01;;;;;;;6.40;2.47;;;;;;;4.25;100.00;100442.50;5117769;27;20051;-85
2022/01/10 04:58:28;;;;;;;5.32;1.90;;;;;;;4.47;100.00;100432.66;5118840;27;20047;-85
2022/01/10 05:00:55;;;;;;;7.47;2.60;;;;;;;4.31;100.00;100434.63;5134415;27;20048;-86
2022/01/10 05:03:22;;;;;;;6.88;2.20;;;;;;;4.44;100.00;100432.69;5134333;27;20050;-85
2022/01/10 05:05:53;;;;;;;8.00;3.38;;;;;;;4.61;100.00;100440.19;5134745;27;20562;-85
2022/01/10 05:08:20;;;;;;;7.05;2.50;;;;;;;4.68;100.00;100427.06;5134999;27;20059;-85
2022/01/10 05:10:51;;;;;;;6.90;2.40;;;;;;;4.82;100.00;100444.97;5136799;27;20115;-85
2022/01/10 05:13:20;;;;;;;5.82;2.38;;;;;;;4.85;100.00;100420.72;5133417;27;20054;-85
2022/01/10 05:15:47;;;;;;;6.30;2.35;;;;;;;4.89;100.00;100427.56;5134041;27;20047;-85
2022/01/10 05:18:14;;;;;;;6.38;2.40;;;;;;;4.91;100.00;100397.25;5133849;27;20055;-85
2022/01/10 05:20:41;;;;;;;6.53;2.28;;;;;;;4.74;100.00;100432.13;5155140;27;20045;-85
2022/01/10 05:23:08;;;;;;;6.28;2.33;;;;;;;4.75;100.00;100426.06;5137463;27;20053;-85
2022/01/10 05:25:39;;;;;;;6.90;2.47;;;;;;;4.75;100.00;100449.41;5137223;27;20057;-85
2022/01/10 05:28:11;;;;;;;9.73;3.25;;;;;;;4.74;100.00;100444.25;5137058;27;20046;-85
2022/01/10 05:30:40;;;;;;;6.68;2.63;;;;;;;4.81;100.00;100463.16;5134572;27;20058;-85
2022/01/10 05:33:08;;;;;;;6.43;2.35;;;;;;;4.80;100.00;100427.72;5132706;27;20065;-85
2022/01/10 05:35:39;;;;;;;6.93;2.40;;;;;;;5.02;100.00;100467.94;5155411;27;20055;-85
2022/01/10 05:38:06;;;;;;;7.47;2.58;;;;;;;5.07;100.00;100463.53;5137280;27;20400;-85
2022/01/10 05:40:33;;;;;;;6.03;2.25;;;;;;;4.98;100.00;100460.28;5154131;27;20395;-85
2022/01/10 05:43:00;;;;;;;9.98;3.13;;;;;;;5.03;100.00;100469.66;5158527;27;20068;-84
2022/01/10 05:45:27;;;;;;;9.32;3.20;;;;;;;5.09;100.00;100481.66;5157676;27;20526;-84
2022/01/10 05:47:54;;;;;;;9.25;3.17;;;;;;;5.16;100.00;100474.63;5165811;27;20467;-84
2022/01/10 05:50:32;;;;;;;10.20;2.72;;;;;;;5.42;100.00;100481.88;5138955;27;20484;-83
2022/01/10 05:52:59;;;;;;;7.32;2.28;;;;;;;5.44;100.00;100472.34;5137316;27;20499;-84
2022/01/10 05:55:26;;;;;;;8.50;2.90;;;;;;;5.32;100.00;100478.63;5137041;27;20047;-84
2022/01/10 05:57:54;;;;;;;7.40;2.47;;;;;;;5.57;100.00;100494.56;5137043;27;20126;-84
2022/01/10 06:00:21;;;;;;;6.05;2.30;;;;;;;5.67;100.00;100480.50;5135789;27;20129;-84
2022/01/10 06:02:49;;;;;;;7.38;2.60;;;;;;;5.86;100.00;100485.28;5139891;27;20050;-84
2022/01/10 06:05:16;;;;;;;5.97;2.20;;;;;;;5.39;100.00;100432.63;5155450;27;20054;-84
2022/01/10 06:07:44;;;;;;;11.27;2.60;;;;;;;5.68;100.00;100464.03;5165707;27;20471;-83
2022/01/10 06:10:11;;;;;;;5.97;2.20;;;;;;;5.90;100.00;100482.59;5127547;27;20073;-84
2022/01/10 06:12:38;;;;;;;7.30;2.40;;;;;;;5.79;100.00;100474.19;5135271;27;20043;-84
2022/01/10 06:15:05;;;;;;;7.05;2.63;;;;;;;5.47;100.00;100485.22;5136051;27;20062;-84
2022/01/10 06:17:32;;;;;;;7.28;3.03;;;;;;;5.11;100.00;100470.34;5136343;27;20419;-84
2022/01/10 06:19:59;;;;;;;6.72;2.33;;;;;;;5.37;100.00;100494.13;5133223;27;20057;-83
2022/01/10 06:22:26;;;;;;;9.45;2.78;;;;;;;5.36;100.00;100472.47;5154741;27;20046;-83
2022/01/10 06:24:55;;;;;;;7.38;2.50;;;;;;;5.38;100.00;100469.84;5135857;27;20057;-84
2022/01/10 06:27:22;;;;;;;7.68;2.45;;;;;;;5.45;100.00;100481.81;5132447;27;20443;-83
2022/01/10 06:29:49;;;;;;;8.48;3.03;;;;;;;5.47;100.00;100493.91;5134699;27;20567;-84
2022/01/10 06:32:15;;;;;;;8.85;2.65;;;;;;;5.43;100.00;100470.63;5135575;27;20046;-84
2022/01/10 06:34:42;;;;;;;6.82;2.50;;;;;;;5.43;100.00;100478.41;5136407;27;20050;-84
2022/01/10 06:37:09;;;;;;;7.13;2.42;;;;;;;5.62;100.00;100487.53;5152358;27;20043;-83
2022/01/10 06:39:36;;;;;;;8.75;2.92;;;;;;;5.47;100.00;100485.22;5156273;27;20042;-83
2022/01/10 06:42:03;;;;;;;8.05;2.70;;;;;;;5.35;100.00;100483.75;5157279;27;20057;-84
2022/01/10 06:44:30;;;;;;;6.90;2.78;;;;;;;5.27;100.00;100481.28;5156766;27;20053;-84
2022/01/10 06:46:57;;;;;;;8.85;3.08;;;;;;;5.23;100.00;100471.88;5175147;27;20491;-84
2022/01/10 06:49:24;;;;;;;10.52;3.15;;;;;;;5.20;100.00;100482.31;5145084;27;20498;-84
2022/01/10 06:51:51;;;;;;;7.50;2.70;;;;;;;5.29;100.00;100479.56;5133504;27;20078;-83
2022/01/10 06:54:18;;;;;;;6.90;2.35;;;;;;;5.38;100.00;100488.03;5130602;27;20057;-84
2022/01/10 06:56:49;;;;;;;8.93;2.90;;;;;;;5.41;100.00;100485.38;5126718;27;20198;-83
2022/01/10 06:59:16;;;;;;;7.70;2.53;;;;;;;5.48;100.00;100495.59;5144060;27;20129;-83
2022/01/10 07:01:43;;;;;;;9.95;2.85;;;;;;;5.40;100.00;100484.53;5126535;27;20039;-84
2022/01/10 07:04:10;;;;;;;8.05;2.92;;;;;;;5.22;100.00;100451.13;5146481;27;20047;-85
2022/01/10 07:06:40;;;;;;;8.38;2.65;;;;;;;5.59;100.00;100504.91;5133965;27;20039;-85
2022/01/10 07:09:07;;;;;;;9.32;3.15;;;;;;;5.58;100.00;100503.19;5122086;27;20445;-85
2022/01/10 07:11:34;;;;;;;10.48;3.10;;;;;;;5.61;100.00;100492.75;5123927;27;20503;-85
2022/01/10 07:14:02;;;;;;;11.57;2.65;;;;;;;5.81;100.00;100500.97;5127234;27;20392;-85
2022/01/10 07:16:29;;;;;;;12.15;3.35;;;;;;;5.85;100.00;100480.97;5131762;27;20039;-85
2022/01/10 07:18:55;;;;;;;10.98;2.80;;;;;;;6.04;100.00;100510.91;5128928;27;20449;-86
2022/01/10 07:21:22;;;;;;;12.77;3.58;;;;;;;6.12;100.00;100526.31;5125700;27;20047;-86
2022/01/10 07:23:49;;;;;;;9.75;2.92;;;;;;;6.18;100.00;100510.59;5125744;27;20116;-86
2022/01/10 07:26:17;;;;;;;10.02;2.85;;;;;;;6.30;100.00;100516.38;5127497;27;20043;-85
2022/01/10 07:28:44;;;;;;;13.18;3.85;;;;;;;6.34;100.00;100518.00;5124982;27;20069;-85
2022/01/10 07:31:10;;;;;;;10.88;2.83;;;;;;;6.24;100.00;100507.00;5131030;27;20042;-85
2022/01/10 07:33:38;;;;;;;7.40;2.50;;;;;;;6.30;100.00;100504.22;5126623;27;20051;-85
2022/01/10 07:36:05;;;;;;;14.32;3.63;;;;;;;6.29;100.00;100517.28;5130897;27;20137;-85
2022/01/10 07:38:35;;;;;;;11.95;3.55;;;;;;;6.61;100.00;100514.75;5133179;27;20043;-84
2022/01/10 07:41:06;;;;;;;12.82;4.53;;;;;;;6.69;100.00;100521.50;5132099;27;20038;-85
2022/01/10 07:43:34;;;;;;;9.00;2.60;;;;;;;6.80;100.00;100512.56;5134495;27;20052;-84
2022/01/10 07:46:03;;;;;;;18.60;3.47;;;;;;;6.53;100.00;100505.44;5133156;27;20047;-85
2022/01/10 07:48:32;;;;;;;14.05;3.83;;;;;;;6.32;100.00;100486.88;5127544;27;20047;-84
2022/01/10 07:50:59;;;;;;;11.60;2.63;;;;;;;6.64;100.00;100506.88;5129154;27;20079;-85
2022/01/10 07:53:26;;;;;;;9.93;2.25;;;;;;;6.66;100.00;100517.25;5140705;27;20055;-84
2022/01/10 07:55:57;;;;;;;8.57;2.13;;;;;;;6.72;100.00;100534.44;5134118;27;20125;-85
2022/01/10 07:58:24;;;;;;;7.28;1.88;;;;;;;6.84;100.00;100537.59;5148739;27;20050;-85
2022/01/10 08:00:51;;;;;;;12.25;3.20;;;;;;;6.51;100.00;100535.81;5134851;27;20074;-85
2022/01/10 08:03:18;;;;;;;13.23;2.67;;;;;;;6.65;100.00;100526.78;5149115;27;20388;-85
2022/01/10 08:05:45;;;;;;;13.10;2.38;;;;;;;6.75;100.00;100537.00;5137607;27;20043;-86
2022/01/10 08:08:11;;;;;;;8.82;2.03;;;;;;;7.07;100.00;100523.13;5139340;27;20047;-85
2022/01/10 08:10:38;;;;;;;17.77;2.47;;;;;;;6.49;100.00;100530.66;5137890;27;20043;-84
2022/01/10 08:13:06;;;;;;;7.57;1.83;;;;;;;6.69;100.00;100524.97;5156041;27;20046;-84
2022/01/10 08:15:33;;;;;;;11.48;1.92;;;;;;;7.00;100.00;100552.84;5137711;27;20042;-85
2022/01/10 08:18:00;;;;;;;12.27;1.98;;;;;;;7.05;100.00;100561.38;5138024;27;20039;-84
2022/01/10 08:20:27;;;;;;;13.55;2.60;;;;;;;7.06;100.00;100557.88;5137950;27;20757;-84
2022/01/10 08:22:54;;;;;;;11.20;2.30;;;;;;;7.16;100.00;100563.69;5138659;27;20049;-84
2022/01/10 08:25:21;;;;;;;13.32;2.22;;;;;;;7.30;100.00;100561.59;5138730;27;20206;-85
2022/01/10 08:27:48;;;;;;;22.65;3.38;;;;;;;6.96;100.00;100553.81;5138769;27;20060;-85
2022/01/10 08:30:15;;;;;;;18.60;3.15;;;;;;;7.32;100.00;100567.59;5122275;27;20055;-85
2022/01/10 08:32:41;;;;;;;11.30;2.40;;;;;;;7.40;100.00;100565.66;5135282;27;20076;-85
2022/01/10 08:35:09;;;;;;;11.88;2.72;;;;;;;7.19;100.00;100563.63;5139125;27;20072;-85
2022/01/10 08:37:36;;;;;;;16.23;2.20;;;;;;;7.01;100.00;100555.41;5156653;27;20051;-85
2022/01/10 08:40:04;;;;;;;9.93;2.03;;;;;;;7.26;100.00;100569.50;5137032;27;20054;-85
2022/01/10 08:42:31;;;;;;;11.93;2.92;;;;;;;7.12;100.00;100547.31;5117832;27;20043;-86
2022/01/10 08:44:58;;;;;;;8.52;1.88;;;;;;;7.46;100.00;100567.22;5117076;27;20047;-86
2022/01/10 08:47:27;;;;;;;9.98;1.80;;;;;;;7.58;100.00;100553.03;5129366;27;20047;-86
2022/01/10 08:49:54;;;;;;;10.80;2.90;;;;;;;7.64;100.00;100560.66;5130846;27;20078;-86
2022/01/10 08:52:21;;;;;;;10.07;2.35;;;;;;;7.43;100.00;100564.69;5132687;27;20408;-86
2022/01/10 08:54:49;;;;;;;10.15;3.08;;;;;;;7.41;100.00;100559.53;5123086;27;20039;-86
2022/01/10 08:57:17;;;;;;;13.93;3.08;;;;;;;7.55;100.00;100566.13;5137083;27;20042;-85
2022/01/10 08:59:45;;;;;;;9.45;2.88;;;;;;;7.53;100.00;100563.56;5136498;27;20049;-87
2022/01/10 09:02:13;;;;;;;14.82;2.53;;;;;;;7.69;100.00;100558.78;5137867;27;20066;-87
2022/01/10 09:04:40;;;;;;;7.28;2.10;;;;;;;7.60;100.00;100546.00;5138176;27;20053;-87
2022/01/10 09:07:08;;;;;;;12.75;2.97;;;;;;;7.59;100.00;100547.75;5121686;27;20134;-86
2022/01/10 09:09:37;;;;;;;10.38;2.25;;;;;;;7.73;100.00;100536.94;5116444;27;20061;-84
2022/01/10 09:12:04;;;;;;;13.48;2.30;;;;;;;7.70;100.00;100552.69;5116943;27;20085;-86
2022/01/10 09:14:31;;;;;;;8.80;2.38;;;;;;;7.67;100.00;100541.50;5116761;27;20059;-85
2022/01/10 09:16:58;;;;;;;14.18;2.65;;;;;;;7.64;100.00;100546.78;5116606;27;20039;-85
2022/01/10 09:19:25;;;;;;;16.20;2.75;;;;;;;7.53;100.00;100549.69;5119751;27;20076;-85
2022/01/10 09:21:52;;;;;;;12.77;2.53;;;;;;;7.57;100.00;100557.34;5153640;27;20053;-85
2022/01/10 09:24:19;;;;;;;12.90;2.67;;;;;;;7.63;100.00;100564.13;5132798;27;20461;-85
2022/01/10 09:26:45;;;;;;;15.02;3.63;;;;;;;7.56;100.00;100573.03;5148876;27;20540;-84
2022/01/10 09:29:12;;;;;;;11.73;3.65;;;;;;;7.54;100.00;100517.50;5128328;27;20061;-84
2022/01/10 09:31:39;;;;;;;13.68;3.00;;;;;;;7.58;100.00;100517.38;5149391;27;20049;-85
2022/01/10 09:34:06;;;;;;;14.90;2.67;;;;;;;7.85;100.00;100530.50;5136466;27;20047;-84
2022/01/10 09:36:34;;;;;;;17.45;2.95;;;;;;;7.84;100.00;100554.00;5126546;27;20051;-83
2022/01/10 09:39:02;;;;;;;14.73;2.53;;;;;;;7.72;100.00;100557.81;5127377;27;20054;-84
2022/01/10 09:41:29;;;;;;;15.93;4.43;;;;;;;7.69;100.00;100576.16;5131704;27;20634;-87
2022/01/10 09:44:02;;;;;;;10.15;2.42;;;;;;;7.94;100.00;100577.16;5145050;27;20053;-84
2022/01/10 09:46:30;;;;;;;15.93;3.20;;;;;;;7.84;100.00;100567.03;5150583;27;20051;-83
2022/01/10 09:49:00;;;;;;;14.75;2.45;;;;;;;7.83;100.00;100576.63;5135368;27;20074;-83
2022/01/10 09:51:28;;;;;;;12.38;2.83;;;;;;;8.04;100.00;100575.16;5132321;27;20051;-83
2022/01/10 09:53:56;;;;;;;18.55;3.30;;;;;;;7.95;100.00;100571.06;5127135;27;20055;-83
2022/01/10 09:56:24;;;;;;;17.83;3.65;;;;;;;7.79;100.00;100561.94;5134182;27;20480;-83
2022/01/10 09:58:53;;;;;;;12.52;2.17;;;;;;;7.86;100.00;100560.91;5149706;27;20047;-84
2022/01/10 10:01:20;;;;;;;19.35;4.22;;;;;;;7.94;100.00;100561.50;5135667;27;20460;-83
2022/01/10 10:03:49;;;;;;;18.40;2.80;;;;;;;7.92;100.00;100576.34;5132912;27;20411;-83
2022/01/10 10:06:17;;;;;;;14.05;3.30;;;;;;;7.88;100.00;100585.19;5124896;27;20419;-84
2022/01/10 10:08:44;;;;;;;16.60;2.88;;;;;;;7.88;100.00;100563.44;5125643;27;20043;-83
2022/01/10 10:11:12;;;;;;;31.75;5.18;;;;;;;8.03;100.00;100570.81;5135394;27;20047;-84
2022/01/10 10:13:55;;;;;;;17.45;3.38;;;;;;;7.91;100.00;100552.94;5126779;27;20051;-83
2022/01/10 10:16:23;;;;;;;18.05;2.65;;;;;;;8.14;100.00;100587.03;5126885;27;20364;-83
2022/01/10 10:18:50;;;;;;;16.83;3.58;;;;;;;8.01;100.00;100562.19;5123241;27;20498;-83
2022/01/10 10:21:19;;;;;;;18.67;3.92;;;;;;;7.84;100.00;100565.28;5133481;27;20060;-83
2022/01/10 10:23:48;;;;;;;15.10;3.60;;;;;;;8.14;100.00;100563.56;5135802;27;20047;-83
2022/01/10 10:26:21;;;;;;;15.52;3.47;;;;;;;8.02;100.00;100566.53;5154312;27;20725;-83
2022/01/10 10:28:49;;;;;;;13.90;2.67;;;;;;;8.34;100.00;100564.69;5134059;27;20189;-83
2022/01/10 10:31:33;;;;;;;20.00;3.97;;;;;;;8.51;100.00;100577.22;5121209;27;20049;-83
2022/01/10 10:34:04;;;;;;;15.48;3.33;;;;;;;8.29;100.00;100588.31;5145614;27;20051;-83
2022/01/10 10:36:36;;;;;;;25.95;3.42;;;;;;;8.30;100.00;100576.94;5150487;27;20053;-83
2022/01/10 10:39:07;;;;;;;18.95;3.85;;;;;;;8.36;100.00;100574.16;5143744;27;20048;-84
2022/01/10 10:41:35;;;;;;;19.58;3.08;;;;;;;8.62;100.00;100567.28;5126620;27;20053;-84
2022/01/10 10:44:04;;;;;;;26.00;4.40;;;;;;;8.39;100.00;100560.16;5126824;27;20203;-84
2022/01/10 10:46:31;;;;;;;18.58;3.42;;;;;;;8.33;100.00;100561.22;5149495;27;20502;-84
2022/01/10 10:49:03;;;;;;;18.05;3.70;;;;;;;8.33;100.00;100566.44;5134134;27;20069;-84
2022/01/10 10:51:34;;;;;;;19.05;3.35;;;;;;;8.50;100.00;100578.16;5134625;27;20095;-83
2022/01/10 10:54:11;;;;;;;20.55;3.78;;;;;;;8.01;100.00;100566.56;5126681;27;20074;-83
2022/01/10 10:56:41;;;;;;;21.15;3.97;;;;;;;8.03;100.00;100562.16;5133958;27;20134;-83
2022/01/10 10:59:08;;;;;;;20.10;3.70;;;;;;;8.38;100.00;100563.69;5129268;27;20073;-83
2022/01/10 11:01:39;;;;;;;26.23;4.00;;;;;;;8.27;100.00;100552.72;5131028;27;20141;-83
2022/01/10 11:04:10;;;;;;;17.07;4.00;;;;;;;8.39;100.00;100559.31;5143843;27;20051;-83
2022/01/10 11:06:39;;;;;;;12.70;4.07;;;;;;;8.50;100.00;100565.09;5128186;27;20283;-83
2022/01/10 11:09:09;;;;;;;19.48;4.10;;;;;;;8.32;100.00;100558.63;5144162;27;20051;-83
2022/01/10 11:11:36;;;;;;;19.90;3.78;;;;;;;8.42;100.00;100562.72;5152604;27;20142;-83
2022/01/10 11:14:04;;;;;;;18.88;3.90;;;;;;;8.40;100.00;100587.97;5125580;27;20581;-83
2022/01/10 11:16:31;;;;;;;18.40;3.95;;;;;;;8.34;100.00;100567.31;5134752;27;20042;-83
2022/01/10 11:18:59;;;;;;;26.30;4.95;;;;;;;8.44;100.00;100552.22;5125229;27;20476;-83
2022/01/10 11:21:27;;;;;;;26.00;4.68;;;;;;;8.30;100.00;100556.06;5134494;27;20046;-83
2022/01/10 11:23:56;;;;;;;17.75;4.90;;;;;;;8.28;100.00;100546.59;5134889;27;20046;-83
2022/01/10 11:26:39;;;;;;;19.77;4.47;;;;;;;8.36;100.00;100550.69;5135716;27;20648;-83
2022/01/10 11:29:10;;;;;;;19.88;4.18;;;;;;;8.48;100.00;100565.16;5125049;27;20051;-83
2022/01/10 11:31:41;;;;;;;25.42;4.10;;;;;;;8.36;100.00;100555.06;5133451;27;20047;-84
2022/01/10 11:34:10;;;;;;;45.85;5.78;;;;;;;8.41;100.00;100554.91;5133498;27;20091;-84
2022/01/10 11:36:45;;;;;;;21.92;4.75;;;;;;;8.57;100.00;100563.13;5131238;28;20407;-83
2022/01/10 11:39:13;;;;;;;21.95;5.75;;;;;;;8.20;100.00;100569.44;5133405;27;20046;-84
2022/01/10 11:41:40;;;;;;;22.02;4.30;;;;;;;8.21;100.00;100524.22;5134303;27;20049;-84